Time;durP1;ratioP1;P1;durP2;ratioP2;P2;SDS_P1;SDS_P2;PMS_P1;PMS_P2;Temp;Humidity;BMP_temperature;BMP_pressure;BME280_temperature;BME280_humidity;BME280_pressure;Samples;Min_cycle;Max_cycle;Signal;HPM_P1;HPM_P2
2021/04/26 00:01:46;;;;;;;33.00;14.30;;;;;;;-0.70;63.84;99254.95;2226450;79;21360;-78
2021/04/26 00:04:47;;;;;;;208.80;27.40;;;;;;;-0.75;64.02;99251.22;2226579;80;21173;-78
2021/04/26 00:07:48;;;;;;;38.30;14.73;;;;;;;-0.79;64.03;99253.11;2226358;80;21142;-78
2021/04/26 00:10:49;;;;;;;30.37;14.77;;;;;;;-0.77;64.33;99252.80;2226369;80;21391;-78
2021/04/26 00:13:50;;;;;;;23.87;13.53;;;;;;;-0.72;64.23;99254.37;2226935;80;21141;-81
2021/04/26 00:16:51;;;;;;;28.90;14.13;;;;;;;-0.65;64.23;99253.56;2226880;80;21102;-81
2021/04/26 00:19:52;;;;;;;25.37;13.80;;;;;;;-0.61;64.06;99257.60;2226969;80;21125;-80
2021/04/26 00:22:53;;;;;;;31.33;14.00;;;;;;;-0.57;64.04;99254.44;2226849;80;21427;-79
2021/04/26 00:25:55;;;;;;;27.60;13.20;;;;;;;-0.52;64.25;99260.73;2226772;80;21530;-80
2021/04/26 00:28:56;;;;;;;27.37;14.17;;;;;;;-0.40;64.51;99265.33;2238696;79;21438;-80
2021/04/26 00:31:57;;;;;;;27.70;14.20;;;;;;;-0.25;64.64;99262.81;2258032;79;21092;-79
2021/04/26 00:34:58;;;;;;;28.97;14.17;;;;;;;-0.10;64.68;99263.34;2257803;79;21108;-80
2021/04/26 00:38:00;;;;;;;29.93;14.47;;;;;;;0.03;64.56;99260.25;2257724;79;21116;-78
2021/04/26 00:41:01;;;;;;;28.07;13.27;;;;;;;0.13;64.40;99256.16;2257951;79;21121;-79
2021/04/26 00:44:02;;;;;;;31.03;14.07;;;;;;;0.19;64.23;99254.83;2258154;79;21422;-79
2021/04/26 00:47:03;;;;;;;241.03;145.07;;;;;;;0.22;64.16;99250.27;2258386;79;21109;-79
2021/04/26 00:50:04;;;;;;;61.33;31.23;;;;;;;4.56;86.87;99246.98;2258099;79;21203;-79
2021/04/26 00:53:05;;;;;;;36.77;19.17;;;;;;;7.05;62.37;99237.75;2257771;79;21382;-78
2021/04/26 00:56:06;;;;;;;38.03;16.47;;;;;;;5.94;57.47;99233.47;2258001;78;21156;-80
2021/04/26 00:59:07;;;;;;;41.03;18.57;;;;;;;4.71;56.63;99245.03;2258184;79;21073;-79
2021/04/26 01:02:08;;;;;;;33.33;16.83;;;;;;;3.86;57.01;99243.91;2258136;79;21113;-79
2021/04/26 01:05:10;;;;;;;29.20;15.67;;;;;;;3.28;57.82;99237.36;2257962;78;21148;-79
2021/04/26 01:08:11;;;;;;;36.03;16.47;;;;;;;2.88;58.26;99236.77;2258000;78;21105;-79
2021/04/26 01:11:12;;;;;;;42.17;17.53;;;;;;;2.51;58.62;99232.77;2258027;79;21069;-79
2021/04/26 01:14:13;;;;;;;37.53;17.67;;;;;;;2.26;58.89;99235.81;2258058;79;21101;-79
2021/04/26 01:17:14;;;;;;;42.93;17.80;;;;;;;2.08;59.58;99238.34;2257792;79;21128;-80
2021/04/26 01:20:15;;;;;;;39.03;17.60;;;;;;;2.03;59.83;99227.32;2258193;79;21374;-79
2021/04/26 01:23:16;;;;;;;37.80;17.17;;;;;;;1.89;59.96;99239.48;2257819;79;21139;-79
2021/04/26 01:26:17;;;;;;;35.37;17.17;;;;;;;1.82;60.38;99236.99;2258043;79;21144;-79
2021/04/26 01:29:18;;;;;;;32.67;13.63;;;;;;;1.78;60.28;99231.20;2244971;79;21161;-79
2021/04/26 01:32:19;;;;;;;36.17;15.73;;;;;;;1.75;60.31;99227.58;2226580;79;21117;-79
2021/04/26 01:35:20;;;;;;;28.27;15.10;;;;;;;1.67;60.25;99224.98;2226723;80;21403;-80
2021/04/26 01:38:21;;;;;;;29.40;14.83;;;;;;;1.62;60.47;99229.88;2226901;80;21110;-79
2021/04/26 01:41:22;;;;;;;36.03;16.93;;;;;;;1.62;60.90;99227.70;2226601;80;21106;-80
2021/04/26 01:44:24;;;;;;;35.60;16.67;;;;;;;1.62;60.87;99228.59;2226540;80;21137;-79
2021/04/26 01:47:25;;;;;;;34.33;16.70;;;;;;;1.58;60.81;99223.69;2226424;80;21383;-79
2021/04/26 01:50:26;;;;;;;32.67;15.77;;;;;;;1.56;60.94;99224.41;2226418;80;21090;-79
2021/04/26 01:53:27;;;;;;;38.83;14.87;;;;;;;1.58;61.00;99220.23;2226461;80;21104;-80
2021/04/26 01:56:28;;;;;;;32.90;15.63;;;;;;;1.59;60.98;99219.02;2226434;80;21122;-80
2021/04/26 01:59:29;;;;;;;32.53;14.60;;;;;;;1.62;60.92;99214.44;2226535;80;21415;-79
2021/04/26 02:02:30;;;;;;;26.77;14.33;;;;;;;1.64;60.96;99214.52;2226489;80;21105;-79
2021/04/26 02:05:31;;;;;;;30.43;16.57;;;;;;;1.68;61.11;99213.88;2226325;80;21157;-78
2021/04/26 02:08:32;;;;;;;37.43;15.23;;;;;;;1.70;61.02;99205.44;2226175;80;21387;-79
2021/04/26 02:11:33;;;;;;;33.80;15.40;;;;;;;1.69;61.06;99199.80;2226765;80;21102;-78
2021/04/26 02:14:34;;;;;;;32.13;15.27;;;;;;;1.67;61.11;99193.70;2226418;80;21125;-78
2021/04/26 02:17:35;;;;;;;33.90;14.90;;;;;;;1.67;61.28;99197.55;2226862;80;21106;-77
2021/04/26 02:20:36;;;;;;;30.00;14.13;;;;;;;1.60;61.32;99201.90;2226809;79;21213;-78
2021/04/26 02:23:37;;;;;;;36.97;14.97;;;;;;;1.52;61.28;99207.05;2226807;80;21264;-78
2021/04/26 02:26:38;;;;;;;40.10;15.43;;;;;;;1.42;61.29;99197.95;2226752;80;21423;-77
2021/04/26 02:29:39;;;;;;;42.67;15.13;;;;;;;1.35;61.21;99191.12;2227869;79;21161;-80
2021/04/26 02:32:41;;;;;;;61.80;29.63;;;;;;;1.23;61.25;99193.91;2226857;80;21101;-81
2021/04/26 02:35:42;;;;;;;522.47;346.33;;;;;;;1.14;64.90;99189.16;2227565;79;21118;-81
2021/04/26 02:38:43;;;;;;;100.27;53.33;;;;;;;5.42;80.12;99178.02;2226469;80;21106;-77
2021/04/26 02:41:44;;;;;;;38.07;19.63;;;;;;;7.11;58.17;99160.95;2226471;80;21086;-79
2021/04/26 02:44:46;;;;;;;30.10;15.07;;;;;;;5.66;54.79;99157.32;2226297;79;21142;-77
2021/04/26 02:47:47;;;;;;;24.87;13.63;;;;;;;4.32;54.78;99156.34;2226282;80;21101;-79
2021/04/26 02:50:48;;;;;;;27.57;12.87;;;;;;;3.41;55.63;99174.77;2226436;80;21102;-78
2021/04/26 02:53:49;;;;;;;32.33;14.37;;;;;;;2.73;56.59;99176.73;2226601;80;21097;-77
2021/04/26 02:56:50;;;;;;;30.57;14.77;;;;;;;2.26;57.38;99182.12;2226374;80;21142;-78
2021/04/26 02:59:51;;;;;;;33.57;15.60;;;;;;;1.90;57.75;99178.18;2226384;79;21117;-79
2021/04/26 03:02:52;;;;;;;30.60;14.90;;;;;;;1.53;58.71;99178.82;2226306;80;21220;-79
2021/04/26 03:05:53;;;;;;;30.80;16.07;;;;;;;1.31;59.67;99185.33;2226691;79;21070;-78
2021/04/26 03:08:54;;;;;;;34.37;16.07;;;;;;;1.05;60.08;99184.81;2226489;80;21106;-78
2021/04/26 03:11:55;;;;;;;35.57;16.20;;;;;;;0.89;60.67;99188.62;2226492;80;21236;-78
2021/04/26 03:14:56;;;;;;;32.73;14.30;;;;;;;0.75;61.27;99184.38;2226528;80;21113;-78
2021/04/26 03:17:59;;;;;;;29.73;14.77;;;;;;;0.63;61.43;99179.45;2226221;80;21117;-79
2021/04/26 03:21:00;;;;;;;35.47;16.47;;;;;;;0.55;61.60;99181.58;2226384;80;21247;-77
2021/04/26 03:24:01;;;;;;;33.80;16.30;;;;;;;0.51;61.93;99182.21;2226172;80;21177;-78
2021/04/26 03:27:02;;;;;;;35.97;16.80;;;;;;;0.44;62.13;99174.96;2226222;80;21138;-78
2021/04/26 03:30:03;;;;;;;32.73;15.73;;;;;;;0.39;62.18;99179.35;2240488;79;21141;-78
2021/04/26 03:33:04;;;;;;;36.53;15.90;;;;;;;0.39;62.22;99194.76;2257882;79;21128;-79
2021/04/26 03:36:05;;;;;;;32.07;14.50;;;;;;;0.38;62.35;99187.45;2258144;79;21219;-78
2021/04/26 03:39:07;;;;;;;34.60;15.57;;;;;;;0.38;62.48;99192.59;2257891;79;21097;-78
2021/04/26 03:42:08;;;;;;;35.87;17.00;;;;;;;0.37;62.28;99189.53;2257784;79;21347;-79
2021/04/26 03:45:09;;;;;;;38.20;16.50;;;;;;;0.32;62.50;99192.23;2257876;79;21414;-77
2021/04/26 03:48:10;;;;;;;42.73;16.97;;;;;;;0.24;62.48;99192.20;2257760;79;21112;-77
2021/04/26 03:51:11;;;;;;;45.53;18.17;;;;;;;0.20;62.61;99194.10;2258052;79;21081;-78
2021/04/26 03:54:12;;;;;;;112.03;44.40;;;;;;;0.18;62.70;99192.73;2257921;79;21096;-77
2021/04/26 03:57:13;;;;;;;50.23;20.57;;;;;;;0.17;62.80;99196.49;2257668;79;21109;-79
2021/04/26 04:00:14;;;;;;;48.47;20.77;;;;;;;0.20;62.87;99199.23;2257917;79;21120;-79
2021/04/26 04:03:15;;;;;;;49.27;22.40;;;;;;;0.19;62.91;99198.75;2257969;79;21434;-80
2021/04/26 04:06:16;;;;;;;49.80;21.87;;;;;;;0.18;62.93;99196.98;2257438;79;21117;-79
2021/04/26 04:09:17;;;;;;;53.23;25.30;;;;;;;0.25;63.03;99202.95;2257368;79;21403;-79
2021/04/26 04:12:19;;;;;;;52.00;25.33;;;;;;;0.35;63.03;99202.69;2257326;78;21144;-80
2021/04/26 04:15:20;;;;;;;50.93;22.43;;;;;;;0.45;62.99;99204.98;2257839;79;21105;-79
2021/04/26 04:18:21;;;;;;;48.83;21.37;;;;;;;0.50;62.78;99206.53;2258163;79;21434;-80
2021/04/26 04:21:22;;;;;;;43.67;21.67;;;;;;;0.53;62.60;99205.02;2258201;79;21097;-79
2021/04/26 04:24:23;;;;;;;47.07;22.43;;;;;;;0.62;62.57;99214.92;2258089;79;21172;-78
2021/04/26 04:27:24;;;;;;;47.50;23.40;;;;;;;0.74;62.55;99219.47;2257877;79;21128;-78
2021/04/26 04:30:25;;;;;;;47.47;21.83;;;;;;;0.83;62.47;99219.98;2258096;79;21097;-80
2021/04/26 04:33:26;;;;;;;52.37;21.23;;;;;;;0.97;62.36;99227.61;2258312;79;21124;-80
2021/04/26 04:36:27;;;;;;;42.93;18.37;;;;;;;1.10;61.98;99232.22;2258519;79;21446;-80
2021/04/26 04:39:28;;;;;;;43.70;19.33;;;;;;;1.19;61.78;99232.72;2257462;79;21097;-80
2021/04/26 04:42:29;;;;;;;38.93;15.97;;;;;;;1.27;61.60;99228.88;2257946;78;21227;-80
2021/04/26 04:45:30;;;;;;;51.23;23.33;;;;;;;1.36;61.31;99228.89;2257851;78;21145;-81
2021/04/26 04:48:31;;;;;;;75.47;32.30;;;;;;;1.92;62.96;99229.34;2258048;79;21131;-82
2021/04/26 04:51:32;;;;;;;192.03;86.30;;;;;;;4.03;60.63;99227.45;2258318;79;21450;-82
2021/04/26 04:54:33;;;;;;;34.47;15.07;;;;;;;5.08;57.26;99223.70;2258954;78;21104;-83
2021/04/26 04:57:35;;;;;;;34.17;15.17;;;;;;;4.61;53.97;99225.66;2259284;78;21235;-80
2021/04/26 05:00:36;;;;;;;31.57;14.53;;;;;;;3.91;54.46;99227.80;2258930;79;21120;-84
2021/04/26 05:03:37;;;;;;;26.37;13.50;;;;;;;3.52;55.42;99234.66;2258672;79;21206;-80
2021/04/26 05:06:40;;;;;;;27.07;13.83;;;;;;;3.38;55.01;99230.52;2258577;79;21116;-79
2021/04/26 05:09:42;;;;;;;26.47;12.57;;;;;;;2.92;55.79;99237.80;2258293;78;21133;-80
2021/04/26 05:12:43;;;;;;;28.80;13.07;;;;;;;2.71;56.31;99242.80;2258455;79;21258;-82
2021/04/26 05:15:44;;;;;;;29.20;13.60;;;;;;;2.48;56.69;99241.63;2258647;78;21109;-80
2021/04/26 05:18:46;;;;;;;22.13;11.53;;;;;;;2.31;57.12;99235.64;2258738;79;21096;-78
2021/04/26 05:21:48;;;;;;;25.73;12.40;;;;;;;2.22;57.27;99239.04;2258228;79;21414;-81
2021/04/26 05:24:49;;;;;;;24.20;12.30;;;;;;;2.29;57.38;99236.37;2258301;79;21141;-81
2021/04/26 05:27:50;;;;;;;25.63;11.20;;;;;;;2.46;57.25;99240.67;2258018;79;21547;-80
2021/04/26 05:30:51;;;;;;;27.47;10.87;;;;;;;2.56;57.00;99242.49;2258386;79;21133;-81
2021/04/26 05:33:52;;;;;;;19.57;11.00;;;;;;;2.66;56.18;99245.55;2258135;78;21092;-80
2021/04/26 05:36:54;;;;;;;25.90;12.57;;;;;;;2.73;56.35;99243.76;2258202;79;21088;-80
2021/04/26 05:39:55;;;;;;;20.67;11.77;;;;;;;2.83;55.51;99251.12;2258070;79;21093;-81
2021/04/26 05:42:56;;;;;;;18.43;11.00;;;;;;;2.90;55.82;99250.62;2257713;79;21133;-81
2021/04/26 05:45:57;;;;;;;20.57;10.43;;;;;;;2.99;56.03;99242.03;2257321;79;21073;-80
2021/04/26 05:48:58;;;;;;;20.97;11.67;;;;;;;3.22;55.68;99244.41;2256912;79;21113;-78
2021/04/26 05:51:59;;;;;;;24.13;11.43;;;;;;;3.39;55.52;99247.77;2257220;79;21239;-79
2021/04/26 05:55:00;;;;;;;25.33;11.97;;;;;;;3.51;55.09;99254.82;2257222;79;21109;-80
2021/04/26 05:58:03;;;;;;;24.00;11.20;;;;;;;3.56;54.52;99254.63;2257554;79;21116;-80
2021/04/26 06:01:04;;;;;;;19.17;10.97;;;;;;;3.62;54.59;99254.91;2257355;79;21070;-79
2021/04/26 06:04:05;;;;;;;23.73;10.80;;;;;;;3.75;54.51;99263.69;2258008;79;21121;-81
2021/04/26 06:07:07;;;;;;;18.23;10.07;;;;;;;3.95;54.04;99254.24;2258013;78;21101;-79
2021/04/26 06:10:08;;;;;;;23.10;11.47;;;;;;;4.13;53.82;99264.09;2257592;79;21117;-77
2021/04/26 06:13:09;;;;;;;24.27;11.43;;;;;;;4.31;53.71;99260.13;2258158;79;21422;-81
2021/04/26 06:16:10;;;;;;;21.77;11.60;;;;;;;4.46;53.75;99258.63;2258035;79;21085;-81
2021/04/26 06:19:14;;;;;;;19.03;9.77;;;;;;;4.63;53.17;99262.81;2258211;78;21121;-80
2021/04/26 06:22:15;;;;;;;19.50;10.47;;;;;;;4.86;52.94;99262.47;2258272;79;21095;-80
2021/04/26 06:25:16;;;;;;;17.23;9.20;;;;;;;4.97;51.44;99261.20;2258136;79;21134;-81
2021/04/26 06:28:17;;;;;;;15.43;8.97;;;;;;;5.11;52.03;99259.16;2258356;79;21097;-79
2021/04/26 06:31:18;;;;;;;21.53;9.63;;;;;;;5.32;51.15;99257.86;2238996;78;21125;-81
2021/04/26 06:34:19;;;;;;;14.00;8.63;;;;;;;5.48;50.90;99262.81;2226999;80;21117;-80
2021/04/26 06:37:20;;;;;;;11.57;7.70;;;;;;;5.61;49.86;99258.98;2226533;80;21413;-79
2021/04/26 06:40:21;;;;;;;12.77;7.33;;;;;;;5.66;48.51;99260.03;2226101;80;21113;-79
2021/04/26 06:43:22;;;;;;;14.17;7.90;;;;;;;5.65;48.63;99258.27;2226219;79;21161;-82
2021/04/26 06:46:23;;;;;;;10.50;6.70;;;;;;;5.61;48.44;99255.09;2226462;80;21090;-79
2021/04/26 06:49:24;;;;;;;71.37;10.57;;;;;;;5.61;48.37;99256.39;2226205;80;21392;-78
2021/04/26 06:52:25;;;;;;;15.10;6.97;;;;;;;5.73;49.14;99250.38;2226993;80;21074;-80
2021/04/26 06:55:26;;;;;;;15.60;7.83;;;;;;;5.78;47.90;99257.02;2226285;80;21236;-77
2021/04/26 06:58:27;;;;;;;12.60;8.40;;;;;;;5.85;47.89;99259.02;2226237;79;21388;-78
2021/04/26 07:01:29;;;;;;;8.97;6.70;;;;;;;5.85;46.23;99251.24;2226240;80;21094;-78
2021/04/26 07:04:30;;;;;;;12.27;6.27;;;;;;;5.95;45.69;99244.30;2225815;80;21150;-80
2021/04/26 07:07:31;;;;;;;15.90;6.47;;;;;;;5.83;45.51;99251.59;2226299;80;21122;-79
2021/04/26 07:10:33;;;;;;;11.37;6.10;;;;;;;6.01;46.65;99247.12;2226514;80;21114;-81
2021/04/26 07:13:34;;;;;;;11.10;6.17;;;;;;;6.25;45.59;99250.62;2226687;80;21113;-79
2021/04/26 07:16:35;;;;;;;6.27;4.53;;;;;;;6.43;46.42;99238.70;2226891;80;21105;-80
2021/04/26 07:19:36;;;;;;;8.67;3.87;;;;;;;6.64;43.61;99256.30;2226701;80;21109;-80
2021/04/26 07:22:37;;;;;;;7.57;4.63;;;;;;;6.44;41.12;99239.59;2226155;80;21359;-81
2021/04/26 07:25:39;;;;;;;8.53;3.90;;;;;;;6.38;42.71;99248.04;2226738;80;21164;-81
2021/04/26 07:28:39;;;;;;;7.50;3.63;;;;;;;6.38;42.71;99248.04;2226816;80;21101;-81
2021/04/26 07:31:41;;;;;;;12.90;3.93;;;;;;;6.46;40.94;99243.12;2226411;79;21142;-81
2021/04/26 07:34:42;;;;;;;8.43;3.30;;;;;;;6.27;42.47;99238.59;2226349;80;21225;-79
2021/04/26 07:37:43;;;;;;;6.33;3.70;;;;;;;6.50;42.76;99241.09;2227050;80;21228;-79
2021/04/26 07:40:44;;;;;;;6.90;3.37;;;;;;;6.50;42.76;99241.09;2226806;80;21074;-80
2021/04/26 07:43:45;;;;;;;7.07;3.53;;;;;;;6.76;40.84;99239.37;2226724;80;21157;-81
2021/04/26 07:46:46;;;;;;;6.60;3.63;;;;;;;7.17;40.44;99237.73;2226645;80;21125;-81
2021/04/26 07:49:47;;;;;;;7.43;3.93;;;;;;;7.46;40.02;99241.22;2226557;80;21121;-78
2021/04/26 07:52:48;;;;;;;10.87;4.03;;;;;;;7.64;39.15;99247.39;2226676;80;21110;-82
2021/04/26 07:55:49;;;;;;;5.53;2.90;;;;;;;7.52;38.56;99229.72;2227048;80;21208;-79
2021/04/26 07:58:50;;;;;;;6.60;3.60;;;;;;;7.80;37.14;99235.72;2226463;80;21106;-79
2021/04/26 08:01:52;;;;;;;12.43;3.93;;;;;;;8.11;37.98;99228.41;2226739;80;21074;-78
2021/04/26 08:04:53;;;;;;;5.93;3.50;;;;;;;7.54;36.76;99238.44;2226230;80;21287;-80
2021/04/26 08:07:55;;;;;;;7.10;3.53;;;;;;;6.90;38.42;99237.70;2225749;79;21126;-78
2021/04/26 08:11:02;;;;;;;6.30;3.37;;;;;;;6.94;38.51;99235.70;2226351;80;21102;-79
2021/04/26 08:14:05;;;;;;;10.27;4.07;;;;;;;7.14;39.25;99228.96;2226536;79;21133;-78
2021/04/26 08:17:06;;;;;;;10.90;4.50;;;;;;;7.72;38.46;99236.80;2226649;79;21130;-79
2021/04/26 08:20:07;;;;;;;7.27;3.70;;;;;;;8.16;36.52;99223.79;2226610;80;21133;-78
2021/04/26 08:23:08;;;;;;;13.73;4.07;;;;;;;7.87;35.96;99229.48;2226866;79;21106;-80
2021/04/26 08:26:09;;;;;;;7.60;3.80;;;;;;;7.45;37.73;99218.67;2226493;80;21151;-79
2021/04/26 08:29:11;;;;;;;6.50;3.13;;;;;;;7.24;37.27;99223.22;2226508;80;21078;-80
2021/04/26 08:32:12;;;;;;;4.87;3.00;;;;;;;7.22;36.91;99223.17;2227442;79;21141;-78
2021/04/26 08:35:13;;;;;;;6.83;4.03;;;;;;;7.55;36.31;99222.02;2227103;80;21118;-79
2021/04/26 08:38:14;;;;;;;9.37;4.23;;;;;;;7.29;35.19;99228.14;2226636;80;21109;-78
2021/04/26 08:41:16;;;;;;;5.70;3.10;;;;;;;7.20;36.13;99231.75;2226539;79;21114;-82
2021/04/26 08:44:17;;;;;;;7.30;2.73;;;;;;;7.13;37.55;99223.30;2226742;80;21139;-81
2021/04/26 08:47:22;;;;;;;4.27;2.73;;;;;;;6.94;37.94;99229.21;2227159;80;21111;-80
2021/04/26 08:50:21;;;;;;;4.43;2.43;;;;;;;6.85;37.48;99239.26;2226585;80;21236;-82
2021/04/26 08:53:22;;;;;;;4.20;2.23;;;;;;;6.62;35.46;99216.45;2227259;80;21118;-80
2021/04/26 08:56:23;;;;;;;7.13;1.70;;;;;;;6.62;35.46;99216.45;2227257;80;21267;-81
2021/04/26 08:59:24;;;;;;;12.70;2.70;;;;;;;6.58;35.46;99218.48;2226868;80;21078;-82
2021/04/26 09:02:25;;;;;;;6.90;3.30;;;;;;;6.63;35.52;99216.03;2226723;80;21410;-82
2021/04/26 09:05:26;;;;;;;9.57;2.30;;;;;;;7.02;36.27;99215.18;2226880;80;21165;-79
2021/04/26 09:08:29;;;;;;;3.73;2.00;;;;;;;7.38;35.43;99218.03;2226841;80;21097;-79
2021/04/26 09:11:30;;;;;;;3.00;2.20;;;;;;;7.59;34.65;99218.67;2226750;80;21110;-79
2021/04/26 09:14:31;;;;;;;7.13;2.47;;;;;;;7.40;34.05;99230.64;2226543;80;21097;-80
2021/04/26 09:17:32;;;;;;;4.33;2.43;;;;;;;7.23;34.12;99235.73;2227263;80;21350;-80
2021/04/26 09:20:33;;;;;;;3.73;2.20;;;;;;;7.05;32.88;99229.97;2226734;79;21097;-79
2021/04/26 09:23:34;;;;;;;9.77;2.73;;;;;;;7.05;33.83;99231.27;2226598;80;21154;-80
2021/04/26 09:26:35;;;;;;;7.20;2.33;;;;;;;7.53;34.07;99221.09;2226609;80;21157;-79
2021/04/26 09:29:36;;;;;;;9.37;2.67;;;;;;;7.93;33.29;99219.25;2226565;80;21098;-80
2021/04/26 09:32:38;;;;;;;6.13;2.77;;;;;;;8.12;34.29;99225.84;2226726;79;21106;-79
2021/04/26 09:35:41;;;;;;;3.57;2.40;;;;;;;8.08;33.18;99238.72;2226895;80;21382;-80
2021/04/26 09:38:43;;;;;;;3.67;2.60;;;;;;;7.66;33.59;99238.80;2226831;80;21117;-78
2021/04/26 09:41:45;;;;;;;6.00;3.20;;;;;;;7.34;33.01;99239.13;2226725;80;21099;-80
2021/04/26 09:44:47;;;;;;;4.77;2.60;;;;;;;7.31;34.03;99233.84;2227164;80;21304;-78
2021/04/26 09:47:48;;;;;;;4.73;3.00;;;;;;;7.33;32.90;99234.77;2226092;80;21113;-79
2021/04/26 09:50:49;;;;;;;8.90;2.80;;;;;;;7.45;32.61;99228.19;2226117;80;21070;-78
2021/04/26 09:53:51;;;;;;;7.20;2.97;;;;;;;7.62;31.75;99230.45;2226138;79;21411;-79
2021/04/26 09:56:52;;;;;;;7.10;2.63;;;;;;;8.19;31.78;99226.47;2226298;80;21130;-79
2021/04/26 09:59:53;;;;;;;3.47;2.47;;;;;;;8.15;31.96;99232.43;2226361;80;21085;-79
2021/04/26 10:02:54;;;;;;;10.37;4.37;;;;;;;8.10;32.93;99223.63;2226653;80;21252;-79
2021/04/26 10:05:56;;;;;;;5.23;3.77;;;;;;;8.06;32.77;99226.98;2227098;80;21172;-79
2021/04/26 10:08:57;;;;;;;7.90;3.07;;;;;;;7.98;32.09;99232.38;2227012;80;21121;-80
2021/04/26 10:11:58;;;;;;;7.87;4.13;;;;;;;7.84;32.68;99242.80;2226623;80;21098;-80
2021/04/26 10:14:59;;;;;;;8.33;3.43;;;;;;;7.82;32.91;99230.19;2226592;80;21208;-80
2021/04/26 10:18:00;;;;;;;5.67;4.30;;;;;;;7.88;32.70;99237.73;2226082;79;21137;-81
2021/04/26 10:21:01;;;;;;;4.10;2.47;;;;;;;8.27;32.17;99226.27;2225999;79;21117;-80
2021/04/26 10:24:02;;;;;;;5.50;2.87;;;;;;;8.82;31.16;99210.83;2226324;80;21137;-81
2021/04/26 10:27:06;;;;;;;7.00;3.67;;;;;;;9.10;31.49;99212.37;2226292;80;21157;-81
2021/04/26 10:30:07;;;;;;;9.17;3.33;;;;;;;9.07;30.48;99214.02;2226284;80;21097;-80
2021/04/26 10:33:08;;;;;;;36.07;4.47;;;;;;;8.91;30.69;99216.26;2226588;79;21142;-82
2021/04/26 10:36:09;;;;;;;17.23;3.60;;;;;;;8.58;30.86;99217.99;2226795;80;21074;-81
2021/04/26 10:39:10;;;;;;;4.37;3.30;;;;;;;8.25;31.73;99213.63;2226734;80;21376;-80
2021/04/26 10:42:11;;;;;;;5.43;2.90;;;;;;;8.42;30.89;99202.41;2226807;80;21121;-81
2021/04/26 10:45:12;;;;;;;4.60;2.63;;;;;;;8.90;30.48;99194.97;2226841;80;21147;-80
2021/04/26 10:48:13;;;;;;;6.43;3.30;;;;;;;9.66;31.03;99185.84;2226544;80;21516;-79
2021/04/26 10:51:14;;;;;;;5.13;3.23;;;;;;;9.86;30.11;99186.70;2226561;80;21122;-79
2021/04/26 10:54:16;;;;;;;4.33;2.47;;;;;;;9.55;29.28;99191.70;2226496;80;21106;-80
2021/04/26 10:57:17;;;;;;;10.53;4.17;;;;;;;9.20;29.52;99188.72;2226778;80;21132;-83
2021/04/26 11:00:18;;;;;;;5.20;3.00;;;;;;;9.02;29.94;99196.11;2226736;80;21101;-79
2021/04/26 11:03:19;;;;;;;9.93;4.07;;;;;;;8.79;29.77;99195.14;2226733;80;21113;-80
2021/04/26 11:06:21;;;;;;;7.57;3.03;;;;;;;8.69;30.12;99193.15;2226874;80;21260;-81
2021/04/26 11:09:22;;;;;;;7.83;4.03;;;;;;;8.69;30.49;99194.88;2226711;80;21094;-81
2021/04/26 11:12:23;;;;;;;8.33;2.80;;;;;;;8.85;30.27;99193.98;2226932;80;21410;-80
2021/04/26 11:15:24;;;;;;;9.70;3.63;;;;;;;9.42;30.19;99170.53;2226902;80;21498;-80
2021/04/26 11:18:26;;;;;;;6.77;3.90;;;;;;;9.45;30.20;99176.69;2227034;80;21105;-80
2021/04/26 11:21:27;;;;;;;48.10;6.07;;;;;;;9.28;29.42;99180.66;2226644;80;21105;-80
2021/04/26 11:24:28;;;;;;;12.30;4.97;;;;;;;9.42;29.22;99158.80;2226871;80;21132;-81
2021/04/26 11:27:29;;;;;;;13.30;4.53;;;;;;;9.90;29.72;99178.09;2226642;80;21098;-81
2021/04/26 11:30:32;;;;;;;5.80;3.33;;;;;;;10.37;28.14;99172.91;2227023;79;21511;-82
2021/04/26 11:33:35;;;;;;;5.75;3.00;;;;;;;10.30;27.78;99180.18;2254635;79;21133;-81
2021/04/26 11:36:37;;;;;;;5.53;3.23;;;;;;;10.12;28.21;99170.25;2258533;79;21112;-81
2021/04/26 11:39:40;;;;;;;7.50;3.93;;;;;;;9.72;28.75;99161.20;2258958;78;21120;-81
2021/04/26 11:42:41;;;;;;;8.33;4.00;;;;;;;9.36;29.09;99177.80;2258813;78;21207;-81
2021/04/26 11:45:43;;;;;;;12.70;3.87;;;;;;;8.98;29.77;99163.03;2258583;78;21410;-81
2021/04/26 11:48:44;;;;;;;12.50;5.00;;;;;;;9.02;29.67;99166.16;2258833;79;21096;-81
2021/04/26 11:51:45;;;;;;;16.53;6.23;;;;;;;8.94;29.51;99164.69;2258913;79;21067;-80
2021/04/26 11:54:47;;;;;;;8.60;3.90;;;;;;;8.91;30.16;99155.50;2258463;78;21152;-80
2021/04/26 11:57:48;;;;;;;4.27;2.77;;;;;;;8.93;29.86;99158.59;2258665;79;21152;-80
2021/04/26 12:00:49;;;;;;;13.53;5.40;;;;;;;8.93;29.57;99149.91;2258552;79;21077;-82
2021/04/26 12:03:50;;;;;;;7.50;2.87;;;;;;;8.97;29.99;99147.83;2258945;79;21139;-82
2021/04/26 12:06:51;;;;;;;8.23;3.77;;;;;;;8.94;29.82;99149.94;2258587;78;21382;-80
2021/04/26 12:09:52;;;;;;;5.23;3.37;;;;;;;8.91;30.52;99152.90;2258478;79;21136;-81
2021/04/26 12:12:54;;;;;;;3.73;2.63;;;;;;;8.63;29.18;99151.33;2258711;79;21121;-81
2021/04/26 12:15:55;;;;;;;3.47;2.57;;;;;;;8.56;28.97;99150.72;2258653;79;21069;-81
2021/04/26 12:18:58;;;;;;;5.43;2.57;;;;;;;8.70;29.10;99145.47;2257929;79;21775;-80
2021/04/26 12:21:59;;;;;;;4.87;2.60;;;;;;;9.18;28.88;99135.71;2258701;79;21077;-80
2021/04/26 12:25:00;;;;;;;3.67;2.53;;;;;;;9.21;28.73;99132.75;2258522;79;21148;-82
2021/04/26 12:28:01;;;;;;;3.97;3.00;;;;;;;9.64;28.30;99126.28;2258452;79;21140;-80
2021/04/26 12:31:02;;;;;;;3.87;2.60;;;;;;;9.93;27.78;99110.78;2258610;79;21076;-80
2021/04/26 12:34:04;;;;;;;3.17;2.70;;;;;;;10.40;26.16;99114.28;2257963;79;21151;-80
2021/04/26 12:37:05;;;;;;;3.57;2.53;;;;;;;10.59;26.45;99110.24;2258423;79;21120;-81
2021/04/26 12:40:06;;;;;;;3.20;2.75;;;;;;;10.90;26.93;99101.14;2258236;78;21112;-80
2021/04/26 12:43:07;;;;;;;7.33;2.87;;;;;;;11.24;26.35;99093.34;2258182;79;21383;-80
2021/04/26 12:46:08;;;;;;;7.28;3.77;;;;;;;11.23;26.37;99085.48;2258710;79;21156;-81
2021/04/26 12:49:09;;;;;;;4.47;2.95;;;;;;;11.21;25.93;99090.69;2258384;79;21077;-80
2021/04/26 12:52:10;;;;;;;5.03;3.67;;;;;;;11.01;26.43;99088.23;2258461;79;21128;-81
2021/04/26 12:55:12;;;;;;;6.75;3.70;;;;;;;10.74;26.35;99097.85;2258539;78;21088;-80
2021/04/26 12:58:13;;;;;;;8.05;4.62;;;;;;;10.27;27.05;99091.42;2258263;79;21148;-81
2021/04/26 13:01:14;;;;;;;4.35;2.95;;;;;;;10.32;27.13;99081.05;2258584;79;21077;-79
2021/04/26 13:04:15;;;;;;;8.87;3.77;;;;;;;10.29;26.93;99080.58;2258285;79;21176;-80
2021/04/26 13:07:16;;;;;;;5.53;3.17;;;;;;;10.39;27.58;99069.44;2258189;79;21381;-79
2021/04/26 13:10:17;;;;;;;6.13;2.87;;;;;;;10.34;27.31;99078.05;2258622;79;21105;-79
2021/04/26 13:13:18;;;;;;;7.13;3.00;;;;;;;10.20;25.52;99078.69;2258990;79;21069;-81
2021/04/26 13:16:19;;;;;;;7.03;4.53;;;;;;;9.97;26.19;99073.47;2258126;78;21442;-81
2021/04/26 13:19:20;;;;;;;5.73;2.90;;;;;;;10.07;26.55;99067.56;2258275;78;21128;-81
2021/04/26 13:22:21;;;;;;;3.90;2.40;;;;;;;10.55;26.46;99064.49;2258240;79;21100;-80
2021/04/26 13:25:22;;;;;;;4.58;2.35;;;;;;;10.68;25.23;99063.82;2258414;79;21164;-80
2021/04/26 13:28:24;;;;;;;8.10;2.90;;;;;;;10.32;25.12;99058.88;2258298;79;21254;-81
2021/04/26 13:31:25;;;;;;;7.15;3.02;;;;;;;10.56;25.80;99043.63;2258441;78;21073;-80
2021/04/26 13:34:27;;;;;;;4.28;2.37;;;;;;;10.88;25.85;99040.60;2227669;79;21169;-79
2021/04/26 13:37:28;;;;;;;6.90;3.20;;;;;;;11.02;25.12;99041.23;2226618;80;21101;-77
2021/04/26 13:40:29;;;;;;;3.42;2.70;;;;;;;11.11;24.40;99041.36;2226352;80;21098;-78
2021/04/26 13:43:30;;;;;;;5.97;3.37;;;;;;;10.84;24.16;99037.95;2226348;80;21407;-78
2021/04/26 13:46:31;;;;;;;5.33;2.75;;;;;;;10.74;25.47;99034.77;2226689;80;21114;-79
2021/04/26 13:49:32;;;;;;;5.30;2.67;;;;;;;10.91;25.14;99031.50;2226869;80;21097;-79
2021/04/26 13:52:36;;;;;;;3.55;2.50;;;;;;;10.84;25.41;99025.33;2226576;80;21121;-80
2021/04/26 13:55:37;;;;;;;4.62;2.72;;;;;;;10.72;25.16;99028.64;2226620;79;21129;-80
2021/04/26 13:58:38;;;;;;;3.93;2.50;;;;;;;10.38;25.21;99035.49;2226812;79;21419;-80
2021/04/26 14:01:39;;;;;;;4.27;3.00;;;;;;;10.14;24.66;99022.47;2226859;80;21109;-81
2021/04/26 14:04:40;;;;;;;5.83;3.37;;;;;;;9.97;25.07;99030.88;2226674;80;21153;-80
2021/04/26 14:07:41;;;;;;;4.45;3.40;;;;;;;10.08;24.74;99021.07;2226593;80;21367;-78
2021/04/26 14:10:42;;;;;;;6.03;2.90;;;;;;;10.16;25.57;99013.38;2226839;80;21110;-79